sensor_id;sensor_type;location;lat;lon;timestamp;pressure;altitude;pressure_sealevel;temperature;humidity
9538;BME280;4807;48.024;11.726;2022-12-11T00:02:59;94090.59;;;-1.47;84.66
9538;BME280;4807;48.024;11.726;2022-12-11T00:06:10;94098.69;;;-1.68;84.78
9538;BME280;4807;48.024;11.726;2022-12-11T00:09:19;94104.94;;;-1.61;84.38
9538;BME280;4807;48.024;11.726;2022-12-11T00:12:30;94108.63;;;-1.71;84.08
9538;BME280;4807;48.024;11.726;2022-12-11T00:15:38;94110.47;;;-1.81;84.59
9538;BME280;4807;48.024;11.726;2022-12-11T00:18:47;94105.66;;;-1.86;84.52
9538;BME280;4807;48.024;11.726;2022-12-11T00:21:55;94113.66;;;-1.87;84.89
9538;BME280;4807;48.024;11.726;2022-12-11T00:25:04;94117.09;;;-1.87;85.09
9538;BME280;4807;48.024;11.726;2022-12-11T00:28:16;94105.16;;;-1.89;85.36
9538;BME280;4807;48.024;11.726;2022-12-11T00:31:25;94100.31;;;-1.84;86.23
9538;BME280;4807;48.024;11.726;2022-12-11T00:34:33;94110.50;;;-1.91;86.12
9538;BME280;4807;48.024;11.726;2022-12-11T00:37:41;94108.13;;;-1.84;85.49
9538;BME280;4807;48.024;11.726;2022-12-11T00:40:50;94106.72;;;-1.97;85.15
9538;BME280;4807;48.024;11.726;2022-12-11T00:44:00;94109.69;;;-1.92;85.29
9538;BME280;4807;48.024;11.726;2022-12-11T00:47:09;94102.75;;;-2.01;85.55
9538;BME280;4807;48.024;11.726;2022-12-11T00:50:17;94103.56;;;-2.00;84.54
9538;BME280;4807;48.024;11.726;2022-12-11T00:53:26;94110.19;;;-2.06;84.40
9538;BME280;4807;48.024;11.726;2022-12-11T00:56:34;94109.22;;;-2.05;85.52
9538;BME280;4807;48.024;11.726;2022-12-11T00:59:44;94112.97;;;-1.89;84.43
9538;BME280;4807;48.024;11.726;2022-12-11T01:02:52;94106.31;;;-2.02;84.75
9538;BME280;4807;48.024;11.726;2022-12-11T01:06:01;94122.72;;;-1.92;84.28
9538;BME280;4807;48.024;11.726;2022-12-11T01:09:09;94119.16;;;-1.90;84.21
9538;BME280;4807;48.024;11.726;2022-12-11T01:12:35;94129.88;;;-1.94;83.74
9538;BME280;4807;48.024;11.726;2022-12-11T01:15:45;94120.34;;;-2.03;84.60
9538;BME280;4807;48.024;11.726;2022-12-11T01:18:53;94124.97;;;-1.97;84.24
9538;BME280;4807;48.024;11.726;2022-12-11T01:22:02;94130.41;;;-1.90;83.92
9538;BME280;4807;48.024;11.726;2022-12-11T01:25:10;94129.00;;;-1.84;83.66
9538;BME280;4807;48.024;11.726;2022-12-11T01:28:19;94134.53;;;-1.87;83.56
9538;BME280;4807;48.024;11.726;2022-12-11T01:31:29;94136.19;;;-1.86;83.79
9538;BME280;4807;48.024;11.726;2022-12-11T01:34:37;94145.19;;;-1.81;83.69
9538;BME280;4807;48.024;11.726;2022-12-11T01:37:46;94135.34;;;-1.87;83.53
9538;BME280;4807;48.024;11.726;2022-12-11T01:40:54;94143.59;;;-1.92;84.65
9538;BME280;4807;48.024;11.726;2022-12-11T01:44:07;94146.13;;;-2.00;84.26
9538;BME280;4807;48.024;11.726;2022-12-11T01:47:17;94138.84;;;-1.96;84.10
9538;BME280;4807;48.024;11.726;2022-12-11T01:50:26;94146.13;;;-2.00;83.61
9538;BME280;4807;48.024;11.726;2022-12-11T01:53:39;94148.44;;;-1.97;82.98
9538;BME280;4807;48.024;11.726;2022-12-11T01:56:55;94155.97;;;-1.94;83.16
9538;BME280;4807;48.024;11.726;2022-12-11T02:00:06;94150.09;;;-1.96;83.60
9538;BME280;4807;48.024;11.726;2022-12-11T02:03:21;94151.16;;;-1.88;82.70
9538;BME280;4807;48.024;11.726;2022-12-11T02:06:33;94149.31;;;-2.06;83.01
9538;BME280;4807;48.024;11.726;2022-12-11T02:09:45;94160.81;;;-1.99;82.87
9538;BME280;4807;48.024;11.726;2022-12-11T02:13:02;94152.97;;;-1.99;83.40
9538;BME280;4807;48.024;11.726;2022-12-11T02:16:23;94149.41;;;-1.98;83.13
9538;BME280;4807;48.024;11.726;2022-12-11T02:19:56;94147.47;;;-1.96;82.59
9538;BME280;4807;48.024;11.726;2022-12-11T02:23:52;94136.69;;;-2.10;82.23
9538;BME280;4807;48.024;11.726;2022-12-11T02:27:19;94131.91;;;-2.15;82.67
9538;BME280;4807;48.024;11.726;2022-12-11T02:30:35;94128.06;;;-2.11;82.48
9538;BME280;4807;48.024;11.726;2022-12-11T02:33:50;94138.50;;;-2.11;82.54
9538;BME280;4807;48.024;11.726;2022-12-11T02:37:05;94126.41;;;-2.12;82.60
9538;BME280;4807;48.024;11.726;2022-12-11T02:40:22;94128.75;;;-2.18;82.85
9538;BME280;4807;48.024;11.726;2022-12-11T02:43:34;94124.53;;;-2.19;83.37
9538;BME280;4807;48.024;11.726;2022-12-11T02:46:45;94121.25;;;-2.21;83.01
9538;BME280;4807;48.024;11.726;2022-12-11T02:49:57;94117.38;;;-2.17;83.30
9538;BME280;4807;48.024;11.726;2022-12-11T02:53:09;94118.88;;;-2.15;83.52
9538;BME280;4807;48.024;11.726;2022-12-11T02:56:29;94123.41;;;-2.17;83.51
9538;BME280;4807;48.024;11.726;2022-12-11T02:59:43;94124.97;;;-2.24;83.74
9538;BME280;4807;48.024;11.726;2022-12-11T03:02:53;94126.31;;;-2.20;83.47
9538;BME280;4807;48.024;11.726;2022-12-11T03:06:02;94132.41;;;-2.29;83.50
9538;BME280;4807;48.024;11.726;2022-12-11T03:12:50;94145.63;;;-2.13;83.07
9538;BME280;4807;48.024;11.726;2022-12-11T03:16:11;94145.09;;;-2.16;83.42
9538;BME280;4807;48.024;11.726;2022-12-11T03:19:35;94144.28;;;-2.17;84.27
9538;BME280;4807;48.024;11.726;2022-12-11T03:22:50;94152.22;;;-2.18;83.35
9538;BME280;4807;48.024;11.726;2022-12-11T03:26:04;94153.06;;;-2.18;83.22
9538;BME280;4807;48.024;11.726;2022-12-11T03:29:20;94153.63;;;-2.24;83.87
9538;BME280;4807;48.024;11.726;2022-12-11T03:32:35;94152.19;;;-2.36;84.48
9538;BME280;4807;48.024;11.726;2022-12-11T03:35:52;94154.91;;;-2.28;84.28
9538;BME280;4807;48.024;11.726;2022-12-11T03:39:08;94145.13;;;-2.26;83.08
9538;BME280;4807;48.024;11.726;2022-12-11T03:42:20;94147.34;;;-2.31;82.92
9538;BME280;4807;48.024;11.726;2022-12-11T03:45:32;94150.91;;;-2.32;84.33
9538;BME280;4807;48.024;11.726;2022-12-11T03:48:43;94143.66;;;-2.28;83.08
9538;BME280;4807;48.024;11.726;2022-12-11T03:51:56;94142.13;;;-2.31;83.56
9538;BME280;4807;48.024;11.726;2022-12-11T03:55:09;94143.44;;;-2.45;82.86
9538;BME280;4807;48.024;11.726;2022-12-11T03:58:19;94152.34;;;-2.47;82.89
9538;BME280;4807;48.024;11.726;2022-12-11T04:01:27;94148.78;;;-2.46;83.09
9538;BME280;4807;48.024;11.726;2022-12-11T04:04:36;94153.59;;;-2.51;82.96
9538;BME280;4807;48.024;11.726;2022-12-11T04:07:45;94151.53;;;-2.48;83.21
9538;BME280;4807;48.024;11.726;2022-12-11T04:10:54;94156.47;;;-2.45;83.22
9538;BME280;4807;48.024;11.726;2022-12-11T04:14:16;94158.53;;;-2.48;83.37
9538;BME280;4807;48.024;11.726;2022-12-11T04:17:42;94155.63;;;-2.45;83.01
9538;BME280;4807;48.024;11.726;2022-12-11T04:21:08;94153.88;;;-2.54;84.02
9538;BME280;4807;48.024;11.726;2022-12-11T04:24:35;94152.22;;;-2.46;82.65
9538;BME280;4807;48.024;11.726;2022-12-11T04:27:43;94155.22;;;-2.50;83.61
9538;BME280;4807;48.024;11.726;2022-12-11T04:30:59;94152.19;;;-2.36;84.11
9538;BME280;4807;48.024;11.726;2022-12-11T04:34:08;94156.59;;;-2.46;83.31
9538;BME280;4807;48.024;11.726;2022-12-11T04:37:16;94157.53;;;-2.38;83.55
9538;BME280;4807;48.024;11.726;2022-12-11T04:40:26;94157.66;;;-2.39;83.41
9538;BME280;4807;48.024;11.726;2022-12-11T04:43:35;94154.38;;;-2.41;82.96
9538;BME280;4807;48.024;11.726;2022-12-11T04:46:43;94149.84;;;-2.39;84.18
9538;BME280;4807;48.024;11.726;2022-12-11T04:49:51;94149.56;;;-2.36;82.51
9538;BME280;4807;48.024;11.726;2022-12-11T04:52:59;94149.28;;;-2.33;83.35
9538;BME280;4807;48.024;11.726;2022-12-11T04:56:12;94145.19;;;-2.36;82.18
9538;BME280;4807;48.024;11.726;2022-12-11T04:59:21;94146.06;;;-2.54;82.31
9538;BME280;4807;48.024;11.726;2022-12-11T05:02:33;94146.34;;;-2.67;82.44
9538;BME280;4807;48.024;11.726;2022-12-11T05:05:47;94145.03;;;-2.81;82.04
9538;BME280;4807;48.024;11.726;2022-12-11T05:08:56;94151.19;;;-2.91;83.15
9538;BME280;4807;48.024;11.726;2022-12-11T05:12:06;94152.19;;;-3.02;83.42
9538;BME280;4807;48.024;11.726;2022-12-11T05:15:15;94146.84;;;-3.10;83.22
9538;BME280;4807;48.024;11.726;2022-12-11T05:18:24;94145.06;;;-3.19;83.02
9538;BME280;4807;48.024;11.726;2022-12-11T05:21:32;94155.34;;;-3.27;84.38
9538;BME280;4807;48.024;11.726;2022-12-11T05:24:41;94152.59;;;-3.35;84.63
9538;BME280;4807;48.024;11.726;2022-12-11T05:27:51;94151.94;;;-3.28;84.18
9538;BME280;4807;48.024;11.726;2022-12-11T05:31:03;94138.47;;;-3.23;83.36
9538;BME280;4807;48.024;11.726;2022-12-11T05:34:12;94139.47;;;-3.24;84.65
9538;BME280;4807;48.024;11.726;2022-12-11T05:37:21;94148.38;;;-3.17;83.77
9538;BME280;4807;48.024;11.726;2022-12-11T05:40:29;94142.59;;;-3.11;83.59
9538;BME280;4807;48.024;11.726;2022-12-11T05:43:39;94141.25;;;-3.34;84.68
9538;BME280;4807;48.024;11.726;2022-12-11T05:46:48;94149.47;;;-3.20;83.72
9538;BME280;4807;48.024;11.726;2022-12-11T05:49:56;94140.41;;;-3.06;82.62
9538;BME280;4807;48.024;11.726;2022-12-11T05:53:04;94142.03;;;-3.05;82.85
9538;BME280;4807;48.024;11.726;2022-12-11T05:56:15;94136.84;;;-3.05;82.38
9538;BME280;4807;48.024;11.726;2022-12-11T05:59:25;94143.00;;;-3.16;83.48
9538;BME280;4807;48.024;11.726;2022-12-11T06:02:34;94131.78;;;-3.16;83.39
9538;BME280;4807;48.024;11.726;2022-12-11T06:05:42;94138.09;;;-3.19;83.73
9538;BME280;4807;48.024;11.726;2022-12-11T06:08:51;94145.22;;;-3.21;83.48
9538;BME280;4807;48.024;11.726;2022-12-11T06:12:00;94131.94;;;-3.18;83.93
9538;BME280;4807;48.024;11.726;2022-12-11T06:15:10;94134.25;;;-3.24;84.78
9538;BME280;4807;48.024;11.726;2022-12-11T06:18:18;94132.31;;;-3.13;83.98
9538;BME280;4807;48.024;11.726;2022-12-11T06:21:29;94135.19;;;-3.06;83.77
9538;BME280;4807;48.024;11.726;2022-12-11T06:24:37;94135.19;;;-3.06;82.00
9538;BME280;4807;48.024;11.726;2022-12-11T06:27:46;94129.56;;;-3.01;81.53
9538;BME280;4807;48.024;11.726;2022-12-11T06:30:57;94126.84;;;-3.00;80.56
9538;BME280;4807;48.024;11.726;2022-12-11T06:34:07;94136.56;;;-2.92;80.77
9538;BME280;4807;48.024;11.726;2022-12-11T06:37:15;94141.78;;;-2.92;81.28
9538;BME280;4807;48.024;11.726;2022-12-11T06:40:23;94138.03;;;-2.90;81.08
9538;BME280;4807;48.024;11.726;2022-12-11T06:43:32;94130.66;;;-2.85;80.48
9538;BME280;4807;48.024;11.726;2022-12-11T06:46:42;94123.50;;;-2.83;81.19
9538;BME280;4807;48.024;11.726;2022-12-11T06:49:50;94123.88;;;-2.68;81.47
9538;BME280;4807;48.024;11.726;2022-12-11T06:52:58;94132.66;;;-2.69;81.39
9538;BME280;4807;48.024;11.726;2022-12-11T06:56:11;94130.19;;;-2.71;81.25
9538;BME280;4807;48.024;11.726;2022-12-11T06:59:20;94127.22;;;-2.76;81.28
9538;BME280;4807;48.024;11.726;2022-12-11T07:02:29;94126.78;;;-2.81;81.22
9538;BME280;4807;48.024;11.726;2022-12-11T07:05:37;94137.63;;;-2.76;81.00
9538;BME280;4807;48.024;11.726;2022-12-11T07:08:46;94132.66;;;-2.59;80.77
9538;BME280;4807;48.024;11.726;2022-12-11T07:11:54;94140.47;;;-2.59;80.14
9538;BME280;4807;48.024;11.726;2022-12-11T07:15:04;94148.28;;;-2.59;80.33
9538;BME280;4807;48.024;11.726;2022-12-11T07:18:16;94152.09;;;-2.54;79.87
9538;BME280;4807;48.024;11.726;2022-12-11T07:21:25;94155.78;;;-2.56;80.29
9538;BME280;4807;48.024;11.726;2022-12-11T07:24:33;94152.09;;;-2.54;80.51
9538;BME280;4807;48.024;11.726;2022-12-11T07:27:41;94155.38;;;-2.52;79.35
9538;BME280;4807;48.024;11.726;2022-12-11T07:30:49;94158.41;;;-2.56;79.51
9538;BME280;4807;48.024;11.726;2022-12-11T07:34:02;94163.03;;;-2.41;79.99
9538;BME280;4807;48.024;11.726;2022-12-11T07:37:12;94160.25;;;-2.29;79.23
9538;BME280;4807;48.024;11.726;2022-12-11T07:40:20;94164.50;;;-2.28;79.53
9538;BME280;4807;48.024;11.726;2022-12-11T07:43:29;94164.78;;;-2.32;79.07
9538;BME280;4807;48.024;11.726;2022-12-11T07:46:39;94159.44;;;-2.30;79.50
9538;BME280;4807;48.024;11.726;2022-12-11T07:49:48;94166.38;;;-2.11;78.68
9538;BME280;4807;48.024;11.726;2022-12-11T07:52:57;94157.97;;;-2.05;77.72
9538;BME280;4807;48.024;11.726;2022-12-11T07:56:06;94150.00;;;-2.04;78.92
9538;BME280;4807;48.024;11.726;2022-12-11T07:59:14;94154.91;;;-2.01;77.82
9538;BME280;4807;48.024;11.726;2022-12-11T08:02:23;94159.25;;;-1.92;77.70
9538;BME280;4807;48.024;11.726;2022-12-11T08:05:33;94159.47;;;-2.03;77.83
9538;BME280;4807;48.024;11.726;2022-12-11T08:08:42;94160.34;;;-1.94;78.39
9538;BME280;4807;48.024;11.726;2022-12-11T08:11:51;94165.44;;;-1.93;78.92
9538;BME280;4807;48.024;11.726;2022-12-11T08:15:00;94174.19;;;-1.84;78.06
9538;BME280;4807;48.024;11.726;2022-12-11T08:18:08;94173.22;;;-1.83;78.55
9538;BME280;4807;48.024;11.726;2022-12-11T08:21:20;94167.13;;;-1.74;78.35
9538;BME280;4807;48.024;11.726;2022-12-11T08:24:28;94162.75;;;-1.73;77.57
9538;BME280;4807;48.024;11.726;2022-12-11T08:27:37;94160.31;;;-1.84;77.95
9538;BME280;4807;48.024;11.726;2022-12-11T08:30:45;94162.28;;;-1.86;79.00
9538;BME280;4807;48.024;11.726;2022-12-11T08:33:55;94165.75;;;-1.78;78.81
9538;BME280;4807;48.024;11.726;2022-12-11T08:37:04;94168.31;;;-1.68;78.66
9538;BME280;4807;48.024;11.726;2022-12-11T08:40:13;94167.84;;;-1.54;78.09
9538;BME280;4807;48.024;11.726;2022-12-11T08:43:21;94171.34;;;-1.45;77.00
9538;BME280;4807;48.024;11.726;2022-12-11T08:46:31;94173.59;;;-1.33;77.43
9538;BME280;4807;48.024;11.726;2022-12-11T08:49:39;94176.59;;;-0.92;76.45
9538;BME280;4807;48.024;11.726;2022-12-11T08:52:49;94171.41;;;-0.49;74.83
9538;BME280;4807;48.024;11.726;2022-12-11T08:56:00;94173.06;;;-0.14;73.19
9538;BME280;4807;48.024;11.726;2022-12-11T08:59:09;94170.84;;;-0.01;72.99
9538;BME280;4807;48.024;11.726;2022-12-11T09:02:17;94166.81;;;0.13;71.79
9538;BME280;4807;48.024;11.726;2022-12-11T09:05:25;94162.81;;;0.01;72.08
9538;BME280;4807;48.024;11.726;2022-12-11T09:08:35;94169.91;;;-0.25;72.98
9538;BME280;4807;48.024;11.726;2022-12-11T09:11:44;94165.69;;;-0.44;73.33
9538;BME280;4807;48.024;11.726;2022-12-11T09:14:52;94167.13;;;-0.50;73.69
9538;BME280;4807;48.024;11.726;2022-12-11T09:18:00;94164.69;;;-0.69;73.82
9538;BME280;4807;48.024;11.726;2022-12-11T09:21:13;94163.22;;;-0.46;72.90
9538;BME280;4807;48.024;11.726;2022-12-11T09:24:23;94162.41;;;-0.20;72.28
9538;BME280;4807;48.024;11.726;2022-12-11T09:27:33;94157.69;;;-0.17;72.30
9538;BME280;4807;48.024;11.726;2022-12-11T09:30:41;94168.50;;;-0.38;72.03
9538;BME280;4807;48.024;11.726;2022-12-11T09:33:53;94168.19;;;-0.09;72.52
9538;BME280;4807;48.024;11.726;2022-12-11T09:37:02;94165.53;;;-0.43;73.32
9538;BME280;4807;48.024;11.726;2022-12-11T09:40:13;94160.69;;;-0.81;73.73
9538;BME280;4807;48.024;11.726;2022-12-11T09:43:35;94160.47;;;-1.41;74.19
9538;BME280;4807;48.024;11.726;2022-12-11T09:46:45;94160.03;;;-1.54;75.83
9538;BME280;4807;48.024;11.726;2022-12-11T09:50:03;94159.66;;;-1.24;75.60
9538;BME280;4807;48.024;11.726;2022-12-11T09:53:18;94147.41;;;-1.41;74.48
9538;BME280;4807;48.024;11.726;2022-12-11T09:56:34;94154.66;;;-1.35;76.25
9538;BME280;4807;48.024;11.726;2022-12-11T10:00:03;94150.94;;;-1.32;77.42
9538;BME280;4807;48.024;11.726;2022-12-11T10:03:54;94140.28;;;-1.39;76.28
9538;BME280;4807;48.024;11.726;2022-12-11T10:07:19;94141.81;;;-1.28;76.76
9538;BME280;4807;48.024;11.726;2022-12-11T10:10:42;94137.19;;;-0.99;75.26
9538;BME280;4807;48.024;11.726;2022-12-11T10:14:05;94131.22;;;-1.27;73.48
9538;BME280;4807;48.024;11.726;2022-12-11T10:17:22;94139.47;;;-1.67;72.43
9538;BME280;4807;48.024;11.726;2022-12-11T10:20:36;94131.38;;;-1.46;74.99
9538;BME280;4807;48.024;11.726;2022-12-11T10:23:53;94127.31;;;-1.05;71.35
9538;BME280;4807;48.024;11.726;2022-12-11T10:27:14;94124.28;;;-1.18;70.94
9538;BME280;4807;48.024;11.726;2022-12-11T10:30:33;94116.16;;;-1.50;72.03
9538;BME280;4807;48.024;11.726;2022-12-11T10:33:54;94117.94;;;-1.33;72.10
9538;BME280;4807;48.024;11.726;2022-12-11T10:37:06;94121.88;;;-1.11;72.67
9538;BME280;4807;48.024;11.726;2022-12-11T10:40:15;94122.03;;;-1.13;70.91
9538;BME280;4807;48.024;11.726;2022-12-11T10:43:34;94112.47;;;-1.04;72.00
9538;BME280;4807;48.024;11.726;2022-12-11T10:46:46;94109.50;;;-1.09;70.33
9538;BME280;4807;48.024;11.726;2022-12-11T10:49:59;94111.47;;;-1.47;73.43
9538;BME280;4807;48.024;11.726;2022-12-11T10:53:20;94096.78;;;-1.48;72.09
9538;BME280;4807;48.024;11.726;2022-12-11T10:56:31;94106.06;;;-1.28;72.08
9538;BME280;4807;48.024;11.726;2022-12-11T10:59:47;94099.00;;;-1.18;72.51
9538;BME280;4807;48.024;11.726;2022-12-11T11:02:58;94096.72;;;-0.95;70.17
9538;BME280;4807;48.024;11.726;2022-12-11T11:06:17;94087.16;;;-0.86;70.55
9538;BME280;4807;48.024;11.726;2022-12-11T11:09:30;94082.44;;;-0.57;68.35
9538;BME280;4807;48.024;11.726;2022-12-11T11:12:41;94086.47;;;-0.62;68.73
9538;BME280;4807;48.024;11.726;2022-12-11T11:15:57;94075.69;;;-0.33;67.70
9538;BME280;4807;48.024;11.726;2022-12-11T11:19:20;94080.66;;;-0.82;67.70
9538;BME280;4807;48.024;11.726;2022-12-11T11:22:31;94070.53;;;-1.03;67.51
9538;BME280;4807;48.024;11.726;2022-12-11T11:25:49;94070.69;;;-0.53;68.70
9538;BME280;4807;48.024;11.726;2022-12-11T11:28:58;94062.88;;;-0.45;67.69
9538;BME280;4807;48.024;11.726;2022-12-11T11:32:16;94054.31;;;-0.21;66.26
9538;BME280;4807;48.024;11.726;2022-12-11T11:35:30;94050.78;;;-0.46;66.89
9538;BME280;4807;48.024;11.726;2022-12-11T11:38:45;94063.28;;;-0.91;69.03
9538;BME280;4807;48.024;11.726;2022-12-11T11:42:03;94053.16;;;-1.38;68.89
9538;BME280;4807;48.024;11.726;2022-12-11T11:45:21;94053.56;;;-1.25;70.92
9538;BME280;4807;48.024;11.726;2022-12-11T11:48:42;94054.53;;;-1.43;69.62
9538;BME280;4807;48.024;11.726;2022-12-11T11:52:00;94053.56;;;-1.25;70.04
9538;BME280;4807;48.024;11.726;2022-12-11T11:55:17;94044.38;;;-0.85;69.51
9538;BME280;4807;48.024;11.726;2022-12-11T11:58:38;94051.63;;;-1.23;70.05
9538;BME280;4807;48.024;11.726;2022-12-11T12:01:50;94051.25;;;-0.84;69.39
9538;BME280;4807;48.024;11.726;2022-12-11T12:05:02;94050.69;;;-0.62;69.44
9538;BME280;4807;48.024;11.726;2022-12-11T12:08:24;94043.44;;;-0.76;69.78
9538;BME280;4807;48.024;11.726;2022-12-11T12:11:44;94047.34;;;-1.06;71.72
9538;BME280;4807;48.024;11.726;2022-12-11T12:15:19;94037.09;;;-1.61;72.77
9538;BME280;4807;48.024;11.726;2022-12-11T12:18:42;94044.63;;;-1.75;73.82
9538;BME280;4807;48.024;11.726;2022-12-11T12:21:55;94028.56;;;-2.16;73.40
9538;BME280;4807;48.024;11.726;2022-12-11T12:25:18;94038.50;;;-2.19;74.71
9538;BME280;4807;48.024;11.726;2022-12-11T12:28:42;94034.34;;;-1.95;74.88
9538;BME280;4807;48.024;11.726;2022-12-11T12:32:08;94034.59;;;-1.70;74.52
9538;BME280;4807;48.024;11.726;2022-12-11T12:35:33;94035.22;;;-1.33;74.32
9538;BME280;4807;48.024;11.726;2022-12-11T12:38:52;94040.72;;;-1.18;73.12
9538;BME280;4807;48.024;11.726;2022-12-11T12:42:13;94040.44;;;-1.33;72.19
9538;BME280;4807;48.024;11.726;2022-12-11T12:45:29;94044.91;;;-1.43;71.06
9538;BME280;4807;48.024;11.726;2022-12-11T12:48:39;94044.22;;;-1.09;72.17
9538;BME280;4807;48.024;11.726;2022-12-11T12:51:49;94043.31;;;-1.18;70.76
9538;BME280;4807;48.024;11.726;2022-12-11T12:55:04;94042.53;;;-0.93;71.09
9538;BME280;4807;48.024;11.726;2022-12-11T12:58:27;94044.16;;;-0.92;70.71
9538;BME280;4807;48.024;11.726;2022-12-11T13:01:37;94034.84;;;-0.94;69.50
9538;BME280;4807;48.024;11.726;2022-12-11T13:04:57;94028.28;;;-0.98;70.14
9538;BME280;4807;48.024;11.726;2022-12-11T13:08:08;94027.41;;;-0.81;69.25
9538;BME280;4807;48.024;11.726;2022-12-11T13:11:30;94032.56;;;-0.63;68.63
9538;BME280;4807;48.024;11.726;2022-12-11T13:14:41;94030.88;;;-0.39;68.12
9538;BME280;4807;48.024;11.726;2022-12-11T13:17:49;94025.09;;;-0.16;67.95
9538;BME280;4807;48.024;11.726;2022-12-11T13:20:59;94026.66;;;-0.31;68.21
9538;BME280;4807;48.024;11.726;2022-12-11T13:24:24;94035.63;;;-0.42;67.48
9538;BME280;4807;48.024;11.726;2022-12-11T13:27:38;94033.84;;;-0.33;68.05
9538;BME280;4807;48.024;11.726;2022-12-11T13:31:00;94037.09;;;-0.31;67.42
9538;BME280;4807;48.024;11.726;2022-12-11T13:34:17;94040.78;;;-0.16;67.85
9538;BME280;4807;48.024;11.726;2022-12-11T13:37:32;94040.59;;;-0.15;68.18
9538;BME280;4807;48.024;11.726;2022-12-11T13:40:44;94035.53;;;-0.24;67.64
9538;BME280;4807;48.024;11.726;2022-12-11T13:43:56;94042.38;;;-0.23;67.90
9538;BME280;4807;48.024;11.726;2022-12-11T13:47:13;94034.91;;;-0.52;68.60
9538;BME280;4807;48.024;11.726;2022-12-11T13:50:27;94038.69;;;-0.47;69.14
9538;BME280;4807;48.024;11.726;2022-12-11T13:53:36;94032.38;;;-0.70;67.81
9538;BME280;4807;48.024;11.726;2022-12-11T13:56:58;94025.19;;;-0.68;69.59
9538;BME280;4807;48.024;11.726;2022-12-11T14:00:21;94036.47;;;-0.93;69.36
9538;BME280;4807;48.024;11.726;2022-12-11T14:03:32;94040.06;;;-0.94;70.04
9538;BME280;4807;48.024;11.726;2022-12-11T14:06:41;94039.56;;;-0.98;71.15
9538;BME280;4807;48.024;11.726;2022-12-11T14:09:50;94039.56;;;-0.98;70.88
9538;BME280;4807;48.024;11.726;2022-12-11T14:13:03;94040.97;;;-1.03;72.35
9538;BME280;4807;48.024;11.726;2022-12-11T14:16:20;94040.28;;;-1.13;71.17
9538;BME280;4807;48.024;11.726;2022-12-11T14:19:32;94035.97;;;-1.23;72.50
9538;BME280;4807;48.024;11.726;2022-12-11T14:22:40;94045.06;;;-1.27;73.04
9538;BME280;4807;48.024;11.726;2022-12-11T14:25:52;94045.81;;;-1.34;72.74
9538;BME280;4807;48.024;11.726;2022-12-11T14:29:01;94043.66;;;-1.39;72.51
9538;BME280;4807;48.024;11.726;2022-12-11T14:32:17;94044.91;;;-1.43;72.17
9538;BME280;4807;48.024;11.726;2022-12-11T14:35:34;94046.13;;;-1.55;72.34
9538;BME280;4807;48.024;11.726;2022-12-11T14:38:50;94045.69;;;-1.68;72.16
9538;BME280;4807;48.024;11.726;2022-12-11T14:42:03;94050.53;;;-1.73;73.03
9538;BME280;4807;48.024;11.726;2022-12-11T14:45:20;94052.59;;;-1.77;72.80
9538;BME280;4807;48.024;11.726;2022-12-11T14:48:38;94045.69;;;-1.68;73.59
9538;BME280;4807;48.024;11.726;2022-12-11T14:51:56;94052.19;;;-1.72;74.57
9538;BME280;4807;48.024;11.726;2022-12-11T14:55:12;94053.50;;;-1.68;73.57
9538;BME280;4807;48.024;11.726;2022-12-11T14:58:25;94051.78;;;-1.77;72.35
9538;BME280;4807;48.024;11.726;2022-12-11T15:01:36;94050.75;;;-1.84;73.35
9538;BME280;4807;48.024;11.726;2022-12-11T15:08:27;94040.28;;;-2.20;74.26
9538;BME280;4807;48.024;11.726;2022-12-11T15:11:36;94053.06;;;-2.26;74.97
9538;BME280;4807;48.024;11.726;2022-12-11T15:14:50;94053.03;;;-2.44;77.07
9538;BME280;4807;48.024;11.726;2022-12-11T15:18:05;94044.56;;;-2.56;76.95
9538;BME280;4807;48.024;11.726;2022-12-11T15:21:29;94055.13;;;-2.85;76.79
9538;BME280;4807;48.024;11.726;2022-12-11T15:24:42;94053.25;;;-3.02;77.96
9538;BME280;4807;48.024;11.726;2022-12-11T15:27:55;94050.75;;;-2.94;77.10
9538;BME280;4807;48.024;11.726;2022-12-11T15:31:06;94053.25;;;-3.02;77.83
9538;BME280;4807;48.024;11.726;2022-12-11T15:34:34;94039.75;;;-3.34;78.08
9538;BME280;4807;48.024;11.726;2022-12-11T15:37:52;94058.66;;;-3.42;78.67
9538;BME280;4807;48.024;11.726;2022-12-11T15:41:03;94061.94;;;-3.69;78.39
9538;BME280;4807;48.024;11.726;2022-12-11T15:44:19;94055.78;;;-3.87;78.65
9538;BME280;4807;48.024;11.726;2022-12-11T15:47:30;94057.69;;;-3.99;79.89
9538;BME280;4807;48.024;11.726;2022-12-11T15:50:39;94067.13;;;-4.07;79.22
9538;BME280;4807;48.024;11.726;2022-12-11T15:53:47;94070.78;;;-4.19;79.55
9538;BME280;4807;48.024;11.726;2022-12-11T15:57:03;94068.81;;;-4.37;80.90
9538;BME280;4807;48.024;11.726;2022-12-11T16:00:15;94066.22;;;-4.37;80.46
9538;BME280;4807;48.024;11.726;2022-12-11T16:03:25;94064.75;;;-4.39;81.02
9538;BME280;4807;48.024;11.726;2022-12-11T16:06:34;94071.72;;;-4.40;80.92
9538;BME280;4807;48.024;11.726;2022-12-11T16:09:43;94072.09;;;-4.44;81.30
9538;BME280;4807;48.024;11.726;2022-12-11T16:12:54;94069.13;;;-4.40;81.94
9538;BME280;4807;48.024;11.726;2022-12-11T16:16:06;94079.50;;;-4.40;82.39
9538;BME280;4807;48.024;11.726;2022-12-11T16:19:15;94082.94;;;-4.39;82.93
9538;BME280;4807;48.024;11.726;2022-12-11T16:22:24;94078.41;;;-4.37;82.91
9538;BME280;4807;48.024;11.726;2022-12-11T16:25:35;94076.53;;;-4.26;82.16
9538;BME280;4807;48.024;11.726;2022-12-11T16:28:45;94073.94;;;-4.26;82.82
9538;BME280;4807;48.024;11.726;2022-12-11T16:31:56;94080.09;;;-4.17;83.16
9538;BME280;4807;48.024;11.726;2022-12-11T16:35:05;94080.66;;;-4.13;82.78
9538;BME280;4807;48.024;11.726;2022-12-11T16:38:14;94084.50;;;-4.08;82.85
9538;BME280;4807;48.024;11.726;2022-12-11T16:41:23;94087.53;;;-3.93;82.11
9538;BME280;4807;48.024;11.726;2022-12-11T16:44:34;94086.84;;;-3.86;81.90
9538;BME280;4807;48.024;11.726;2022-12-11T16:47:50;94092.06;;;-3.76;81.54
9538;BME280;4807;48.024;11.726;2022-12-11T16:50:59;94090.97;;;-3.73;82.44
9538;BME280;4807;48.024;11.726;2022-12-11T16:54:08;94090.69;;;-3.70;81.68
9538;BME280;4807;48.024;11.726;2022-12-11T16:57:16;94101.25;;;-3.62;81.65
9538;BME280;4807;48.024;11.726;2022-12-11T17:00:26;94091.66;;;-3.52;81.46
9538;BME280;4807;48.024;11.726;2022-12-11T17:03:35;94089.88;;;-3.52;81.82
9538;BME280;4807;48.024;11.726;2022-12-11T17:06:43;94089.31;;;-3.46;81.60
9538;BME280;4807;48.024;11.726;2022-12-11T17:09:52;94096.31;;;-3.56;81.35
9538;BME280;4807;48.024;11.726;2022-12-11T17:13:02;94099.72;;;-3.55;81.72
9538;BME280;4807;48.024;11.726;2022-12-11T17:16:15;94096.59;;;-3.49;81.27
9538;BME280;4807;48.024;11.726;2022-12-11T17:19:24;94099.22;;;-3.49;81.03
9538;BME280;4807;48.024;11.726;2022-12-11T17:22:34;94096.03;;;-3.53;81.00